SKSM/SMR METAR and TAF weather

Enter ICAO airport designator
Station Type Date Time Source
SKSM METAR 2019/08/20 05:00 UTC NOAA

SKSM 200500Z 18004KT 9999 FEW020 SCT200 28/24 A2990


Station Type Date Time Source
SKSM Decoded METAR 2019/08/20 05:00 UTC NOAA

Santa Marta / Simon Bolivar, Colombia (SKSM) 11-08N 074-14W 14M
Aug 20, 2019 - 01:00 AM EDT / 2019.08.20 0500 UTC
Wind: from the S (180 degrees) at 5 MPH (4 KT):0
Visibility: greater than 7 mile(s):0
Sky conditions: partly cloudy
Temperature: 82 F (28 C)
Dew Point: 75 F (24 C)
Relative Humidity: 78%
Pressure (altimeter): 29.9 in. Hg (1012 hPa)
ob: SKSM 200500Z 18004KT 9999 FEW020 SCT200 28/24 A2990
cycle: 5

Station Type Date Time Source
SKSM TAF UTC NOAA

Error!

Example: see airport list